sensor_id;sensor_type;location;lat;lon;timestamp;pressure;altitude;pressure_sealevel;temperature;humidity
52032;BME280;38044;45.148;39.604;2024-02-21T00:01:38;102157.97;;;0.36;70.30
52032;BME280;38044;45.148;39.604;2024-02-21T00:04:04;102159.59;;;0.37;70.27
52032;BME280;38044;45.148;39.604;2024-02-21T00:06:29;102162.06;;;0.38;70.60
52032;BME280;38044;45.148;39.604;2024-02-21T00:08:55;102159.97;;;0.34;70.68
52032;BME280;38044;45.148;39.604;2024-02-21T00:11:21;102152.59;;;0.29;70.51
52032;BME280;38044;45.148;39.604;2024-02-21T00:13:46;102162.81;;;0.32;70.76
52032;BME280;38044;45.148;39.604;2024-02-21T00:16:12;102157.31;;;0.34;70.94
52032;BME280;38044;45.148;39.604;2024-02-21T00:18:38;102146.56;;;0.35;70.95
52032;BME280;38044;45.148;39.604;2024-02-21T00:21:04;102147.09;;;0.31;71.01
52032;BME280;38044;45.148;39.604;2024-02-21T00:23:29;102151.78;;;0.29;71.12
52032;BME280;38044;45.148;39.604;2024-02-21T00:25:55;102169.47;;;0.28;71.06
52032;BME280;38044;45.148;39.604;2024-02-21T00:28:21;102174.22;;;0.33;70.79
52032;BME280;38044;45.148;39.604;2024-02-21T00:30:46;102169.00;;;0.39;70.74
52032;BME280;38044;45.148;39.604;2024-02-21T00:33:13;102174.75;;;0.43;70.58
52032;BME280;38044;45.148;39.604;2024-02-21T00:35:39;102175.38;;;0.45;70.83
52032;BME280;38044;45.148;39.604;2024-02-21T00:38:05;102174.84;;;0.50;70.69
52032;BME280;38044;45.148;39.604;2024-02-21T00:40:30;102170.34;;;0.50;70.66
52032;BME280;38044;45.148;39.604;2024-02-21T00:42:56;102178.13;;;0.52;70.72
52032;BME280;38044;45.148;39.604;2024-02-21T00:45:22;102162.06;;;0.53;70.79
52032;BME280;38044;45.148;39.604;2024-02-21T00:47:48;102158.53;;;0.46;71.08
52032;BME280;38044;45.148;39.604;2024-02-21T00:50:14;102170.09;;;0.45;71.20
52032;BME280;38044;45.148;39.604;2024-02-21T00:52:39;102166.19;;;0.41;71.29
52032;BME280;38044;45.148;39.604;2024-02-21T00:55:05;102167.00;;;0.41;71.11
52032;BME280;38044;45.148;39.604;2024-02-21T00:57:31;102154.41;;;0.43;71.32
52032;BME280;38044;45.148;39.604;2024-02-21T00:59:57;102167.00;;;0.41;71.46
52032;BME280;38044;45.148;39.604;2024-02-21T01:02:22;102171.47;;;0.41;71.39
52032;BME280;38044;45.148;39.604;2024-02-21T01:04:48;102178.84;;;0.45;71.39
52032;BME280;38044;45.148;39.604;2024-02-21T01:07:13;102168.72;;;0.49;71.38
52032;BME280;38044;45.148;39.604;2024-02-21T01:09:39;102171.09;;;0.44;71.65
52032;BME280;38044;45.148;39.604;2024-02-21T01:12:05;102172.13;;;0.43;71.66
52032;BME280;38044;45.148;39.604;2024-02-21T01:14:30;102171.63;;;0.39;71.46
52032;BME280;38044;45.148;39.604;2024-02-21T01:16:56;102172.47;;;0.40;71.52
52032;BME280;38044;45.148;39.604;2024-02-21T01:19:22;102177.66;;;0.48;71.72
52032;BME280;38044;45.148;39.604;2024-02-21T01:21:48;102159.22;;;0.55;71.39
52032;BME280;38044;45.148;39.604;2024-02-21T01:24:13;102163.06;;;0.52;71.32
52032;BME280;38044;45.148;39.604;2024-02-21T01:26:40;102166.53;;;0.53;71.46
52032;BME280;38044;45.148;39.604;2024-02-21T01:29:05;102172.72;;;0.45;71.41
52032;BME280;38044;45.148;39.604;2024-02-21T01:31:31;102161.78;;;0.48;71.46
52032;BME280;38044;45.148;39.604;2024-02-21T01:33:56;102167.06;;;0.48;71.58
52032;BME280;38044;45.148;39.604;2024-02-21T01:36:23;102166.81;;;0.43;71.70
52032;BME280;38044;45.148;39.604;2024-02-21T01:38:49;102159.13;;;0.48;71.59
52032;BME280;38044;45.148;39.604;2024-02-21T01:41:14;102150.59;;;0.46;71.45
52032;BME280;38044;45.148;39.604;2024-02-21T01:43:41;102153.22;;;0.46;71.47
52032;BME280;38044;45.148;39.604;2024-02-21T01:46:07;102152.84;;;0.49;71.60
52032;BME280;38044;45.148;39.604;2024-02-21T01:48:33;102155.28;;;0.51;71.47
52032;BME280;38044;45.148;39.604;2024-02-21T01:50:58;102150.38;;;0.48;71.74
52032;BME280;38044;45.148;39.604;2024-02-21T01:53:31;102147.28;;;0.44;71.76
52032;BME280;38044;45.148;39.604;2024-02-21T01:55:58;102143.81;;;0.43;71.77
52032;BME280;38044;45.148;39.604;2024-02-21T01:58:24;102145.47;;;0.44;71.72
52032;BME280;38044;45.148;39.604;2024-02-21T02:00:50;102150.59;;;0.46;71.52
52032;BME280;38044;45.148;39.604;2024-02-21T02:03:15;102165.06;;;0.50;71.62
52032;BME280;38044;45.148;39.604;2024-02-21T02:05:47;102156.75;;;0.53;71.50
52032;BME280;38044;45.148;39.604;2024-02-21T02:08:17;102166.16;;;0.56;71.71
52032;BME280;38044;45.148;39.604;2024-02-21T02:10:43;102165.34;;;0.55;71.69
52032;BME280;38044;45.148;39.604;2024-02-21T02:13:09;102160.41;;;0.52;71.98
52032;BME280;38044;45.148;39.604;2024-02-21T02:15:45;102158.16;;;0.49;72.00
52032;BME280;38044;45.148;39.604;2024-02-21T02:18:11;102168.25;;;0.45;72.01
52032;BME280;38044;45.148;39.604;2024-02-21T02:20:37;102169.28;;;0.44;72.32
52032;BME280;38044;45.148;39.604;2024-02-21T02:23:48;102168.47;;;0.44;72.28
52032;BME280;38044;45.148;39.604;2024-02-21T02:25:49;102174.75;;;0.43;72.20
52032;BME280;38044;45.148;39.604;2024-02-21T02:28:17;102165.81;;;0.44;72.22
52032;BME280;38044;45.148;39.604;2024-02-21T02:31:01;102166.47;;;0.46;72.40
52032;BME280;38044;45.148;39.604;2024-02-21T02:33:26;102161.88;;;0.40;72.25
52032;BME280;38044;45.148;39.604;2024-02-21T02:38:36;102166.19;;;0.41;72.54
52032;BME280;38044;45.148;39.604;2024-02-21T02:41:02;102177.22;;;0.44;72.30
52032;BME280;38044;45.148;39.604;2024-02-21T02:43:46;102161.59;;;0.50;72.18
52032;BME280;38044;45.148;39.604;2024-02-21T02:46:30;102156.13;;;0.51;72.35
52032;BME280;38044;45.148;39.604;2024-02-21T02:48:56;102172.00;;;0.51;72.30
52032;BME280;38044;45.148;39.604;2024-02-21T02:51:21;102172.00;;;0.51;72.32
52032;BME280;38044;45.148;39.604;2024-02-21T02:53:47;102166.81;;;0.58;72.25
52032;BME280;38044;45.148;39.604;2024-02-21T02:56:15;102160.94;;;0.62;72.24
52032;BME280;38044;45.148;39.604;2024-02-21T02:58:42;102162.31;;;0.58;72.16
52032;BME280;38044;45.148;39.604;2024-02-21T03:01:08;102158.75;;;0.51;72.11
52032;BME280;38044;45.148;39.604;2024-02-21T03:03:33;102158.59;;;0.53;72.27
52032;BME280;38044;45.148;39.604;2024-02-21T03:05:59;102170.34;;;0.50;72.26
52032;BME280;38044;45.148;39.604;2024-02-21T03:08:24;102177.28;;;0.51;72.23
52032;BME280;38044;45.148;39.604;2024-02-21T03:10:50;102173.66;;;0.52;72.33
52032;BME280;38044;45.148;39.604;2024-02-21T03:13:16;102165.72;;;0.52;72.18
52032;BME280;38044;45.148;39.604;2024-02-21T03:15:41;102152.47;;;0.52;72.11
52032;BME280;38044;45.148;39.604;2024-02-21T03:18:07;102166.09;;;0.49;72.37
52032;BME280;38044;45.148;39.604;2024-02-21T03:20:33;102168.91;;;0.48;72.36
52032;BME280;38044;45.148;39.604;2024-02-21T03:22:59;102158.88;;;0.43;72.35
52032;BME280;38044;45.148;39.604;2024-02-21T03:25:24;102147.28;;;0.44;72.62
52032;BME280;38044;45.148;39.604;2024-02-21T03:27:50;102156.41;;;0.41;72.69
52032;BME280;38044;45.148;39.604;2024-02-21T03:30:16;102161.44;;;0.36;72.85
52032;BME280;38044;45.148;39.604;2024-02-21T03:32:43;102157.06;;;0.29;72.86
52032;BME280;38044;45.148;39.604;2024-02-21T03:35:09;102153.41;;;0.30;73.10
52032;BME280;38044;45.148;39.604;2024-02-21T03:37:35;102159.72;;;0.29;73.32
52032;BME280;38044;45.148;39.604;2024-02-21T03:40:00;102154.75;;;0.26;73.18
52032;BME280;38044;45.148;39.604;2024-02-21T03:42:27;102166.63;;;0.30;73.03
52032;BME280;38044;45.148;39.604;2024-02-21T03:44:55;102161.44;;;0.36;73.03
52032;BME280;38044;45.148;39.604;2024-02-21T03:47:21;102160.25;;;0.39;73.14
52032;BME280;38044;45.148;39.604;2024-02-21T03:49:48;102163.69;;;0.39;73.14
52032;BME280;38044;45.148;39.604;2024-02-21T03:52:14;102155.03;;;0.31;73.79
52032;BME280;38044;45.148;39.604;2024-02-21T03:54:40;102145.28;;;0.31;73.62
52032;BME280;38044;45.148;39.604;2024-02-21T03:57:05;102148.50;;;0.27;73.54
52032;BME280;38044;45.148;39.604;2024-02-21T03:59:31;102156.78;;;0.24;73.82
52032;BME280;38044;45.148;39.604;2024-02-21T04:01:57;102155.78;;;0.25;73.84
52032;BME280;38044;45.148;39.604;2024-02-21T04:04:22;102150.94;;;0.13;74.09
52032;BME280;38044;45.148;39.604;2024-02-21T04:06:48;102145.56;;;0.21;73.80
52032;BME280;38044;45.148;39.604;2024-02-21T04:09:14;102157.34;;;0.19;73.83
52032;BME280;38044;45.148;39.604;2024-02-21T04:11:40;102161.25;;;0.08;73.85
52032;BME280;38044;45.148;39.604;2024-02-21T04:14:05;102160.06;;;0.11;74.40
52032;BME280;38044;45.148;39.604;2024-02-21T04:16:31;102160.53;;;0.14;73.92
52032;BME280;38044;45.148;39.604;2024-02-21T04:18:56;102158.16;;;0.19;73.96
52032;BME280;38044;45.148;39.604;2024-02-21T04:21:22;102153.44;;;0.15;74.16
52032;BME280;38044;45.148;39.604;2024-02-21T04:23:48;102156.88;;;0.15;74.17
52032;BME280;38044;45.148;39.604;2024-02-21T04:26:13;102163.19;;;0.14;73.92
52032;BME280;38044;45.148;39.604;2024-02-21T04:28:39;102165.91;;;0.21;74.10
52032;BME280;38044;45.148;39.604;2024-02-21T04:31:05;102171.66;;;0.25;73.87
52032;BME280;38044;45.148;39.604;2024-02-21T04:33:33;102175.38;;;0.30;73.80
52032;BME280;38044;45.148;39.604;2024-02-21T04:35:59;102177.50;;;0.35;73.84
52032;BME280;38044;45.148;39.604;2024-02-21T04:38:25;102183.59;;;0.35;73.62
52032;BME280;38044;45.148;39.604;2024-02-21T04:40:51;102184.88;;;0.39;73.54
52032;BME280;38044;45.148;39.604;2024-02-21T04:43:16;102186.97;;;0.44;73.24
52032;BME280;38044;45.148;39.604;2024-02-21T04:45:42;102189.41;;;0.45;73.39
52032;BME280;38044;45.148;39.604;2024-02-21T04:48:08;102191.16;;;0.53;73.09
52032;BME280;38044;45.148;39.604;2024-02-21T04:50:33;102198.72;;;0.56;73.15
52032;BME280;38044;45.148;39.604;2024-02-21T04:53:00;102192.91;;;0.61;73.14
52032;BME280;38044;45.148;39.604;2024-02-21T04:55:26;102188.41;;;0.61;73.08
52032;BME280;38044;45.148;39.604;2024-02-21T04:57:51;102191.22;;;0.60;72.99
52032;BME280;38044;45.148;39.604;2024-02-21T05:00:17;102197.63;;;0.65;73.25
52032;BME280;38044;45.148;39.604;2024-02-21T05:02:43;102186.66;;;0.68;73.50
52032;BME280;38044;45.148;39.604;2024-02-21T05:05:08;102199.19;;;0.75;73.43
52032;BME280;38044;45.148;39.604;2024-02-21T05:07:34;102215.56;;;0.85;73.38
52032;BME280;38044;45.148;39.604;2024-02-21T05:10:00;102210.56;;;0.90;73.20
52032;BME280;38044;45.148;39.604;2024-02-21T05:12:26;102200.66;;;0.99;73.39
52032;BME280;38044;45.148;39.604;2024-02-21T05:14:51;102201.69;;;0.98;73.35
52032;BME280;38044;45.148;39.604;2024-02-21T05:17:17;102200.22;;;0.95;73.47
52032;BME280;38044;45.148;39.604;2024-02-21T05:19:42;102215.75;;;0.98;73.39
52032;BME280;38044;45.148;39.604;2024-02-21T05:22:08;102205.16;;;0.98;73.15
52032;BME280;38044;45.148;39.604;2024-02-21T05:24:34;102209.44;;;0.99;72.95
52032;BME280;38044;45.148;39.604;2024-02-21T05:26:59;102211.69;;;1.02;72.74
52032;BME280;38044;45.148;39.604;2024-02-21T05:29:25;102206.78;;;0.99;72.43
52032;BME280;38044;45.148;39.604;2024-02-21T05:34:16;102211.91;;;1.01;72.41
52032;BME280;38044;45.148;39.604;2024-02-21T05:36:42;102221.03;;;0.98;72.41
52032;BME280;38044;45.148;39.604;2024-02-21T05:39:07;102220.06;;;1.06;72.07
52032;BME280;38044;45.148;39.604;2024-02-21T05:41:33;102220.81;;;1.15;72.06
52032;BME280;38044;45.148;39.604;2024-02-21T05:43:59;102227.63;;;1.24;71.81
52032;BME280;38044;45.148;39.604;2024-02-21T05:46:24;102222.94;;;1.26;71.61
52032;BME280;38044;45.148;39.604;2024-02-21T05:48:50;102223.31;;;1.23;71.75
52032;BME280;38044;45.148;39.604;2024-02-21T05:51:16;102223.09;;;1.18;71.74
52032;BME280;38044;45.148;39.604;2024-02-21T05:53:41;102221.16;;;1.11;71.64
52032;BME280;38044;45.148;39.604;2024-02-21T05:56:10;102223.56;;;1.06;71.80
52032;BME280;38044;45.148;39.604;2024-02-21T05:58:36;102218.88;;;1.08;71.60
52032;BME280;38044;45.148;39.604;2024-02-21T06:01:02;102220.06;;;1.21;71.87
52032;BME280;38044;45.148;39.604;2024-02-21T06:03:30;102209.19;;;1.37;71.18
52032;BME280;38044;45.148;39.604;2024-02-21T06:05:56;102212.25;;;1.55;70.91
52032;BME280;38044;45.148;39.604;2024-02-21T06:08:22;102215.25;;;1.74;70.63
52032;BME280;38044;45.148;39.604;2024-02-21T06:10:47;102211.28;;;1.91;70.23
52032;BME280;38044;45.148;39.604;2024-02-21T06:13:22;102214.44;;;2.01;69.99
52032;BME280;38044;45.148;39.604;2024-02-21T06:15:48;102214.69;;;2.07;69.47
52032;BME280;38044;45.148;39.604;2024-02-21T06:18:16;102209.38;;;2.07;69.61
52032;BME280;38044;45.148;39.604;2024-02-21T06:20:42;102211.00;;;2.08;69.88
52032;BME280;38044;45.148;39.604;2024-02-21T06:23:08;102210.72;;;2.24;69.63
52032;BME280;38044;45.148;39.604;2024-02-21T06:25:34;102218.59;;;2.45;69.42
52032;BME280;38044;45.148;39.604;2024-02-21T06:27:59;102215.38;;;2.57;68.94
52032;BME280;38044;45.148;39.604;2024-02-21T06:30:25;102217.03;;;2.58;68.36
52032;BME280;38044;45.148;39.604;2024-02-21T06:32:52;102221.06;;;2.47;68.81
52032;BME280;38044;45.148;39.604;2024-02-21T06:35:17;102220.25;;;2.46;68.82
52032;BME280;38044;45.148;39.604;2024-02-21T06:37:43;102220.16;;;2.33;68.92
52032;BME280;38044;45.148;39.604;2024-02-21T06:40:10;102216.94;;;2.38;69.16
52032;BME280;38044;45.148;39.604;2024-02-21T06:42:36;102209.00;;;2.51;69.14
52032;BME280;38044;45.148;39.604;2024-02-21T06:45:02;102211.09;;;2.56;68.96
52032;BME280;38044;45.148;39.604;2024-02-21T06:47:27;102213.75;;;2.56;69.25
52032;BME280;38044;45.148;39.604;2024-02-21T06:49:53;102219.13;;;2.69;69.07
52032;BME280;38044;45.148;39.604;2024-02-21T06:52:18;102215.53;;;2.97;68.99
52032;BME280;38044;45.148;39.604;2024-02-21T06:54:49;102212.94;;;3.10;68.82
52032;BME280;38044;45.148;39.604;2024-02-21T06:57:14;102212.34;;;3.21;68.18
52032;BME280;38044;45.148;39.604;2024-02-21T06:59:43;102214.41;;;3.32;67.56
52032;BME280;38044;45.148;39.604;2024-02-21T07:02:08;102220.34;;;3.48;67.37
52032;BME280;38044;45.148;39.604;2024-02-21T07:04:34;102221.78;;;3.57;67.64
52032;BME280;38044;45.148;39.604;2024-02-21T07:06:59;102219.97;;;3.71;67.51
52032;BME280;38044;45.148;39.604;2024-02-21T07:09:25;102223.44;;;3.84;67.28
52032;BME280;38044;45.148;39.604;2024-02-21T07:11:51;102223.44;;;3.91;67.01
52032;BME280;38044;45.148;39.604;2024-02-21T07:14:18;102223.84;;;4.08;66.86
52032;BME280;38044;45.148;39.604;2024-02-21T07:16:43;102232.03;;;4.13;66.78
52032;BME280;38044;45.148;39.604;2024-02-21T07:19:09;102229.16;;;4.08;66.48
52032;BME280;38044;45.148;39.604;2024-02-21T07:21:35;102225.06;;;4.19;65.81
52032;BME280;38044;45.148;39.604;2024-02-21T07:24:03;102232.78;;;4.40;66.01
52032;BME280;38044;45.148;39.604;2024-02-21T07:26:31;102225.19;;;4.50;65.93
52032;BME280;38044;45.148;39.604;2024-02-21T07:28:56;102230.72;;;4.49;64.96
52032;BME280;38044;45.148;39.604;2024-02-21T07:31:22;102226.97;;;4.63;65.16
52032;BME280;38044;45.148;39.604;2024-02-21T07:33:48;102228.97;;;4.81;63.74
52032;BME280;38044;45.148;39.604;2024-02-21T07:36:15;102230.56;;;4.89;65.65
52032;BME280;38044;45.148;39.604;2024-02-21T07:38:40;102236.13;;;4.81;65.66
52032;BME280;38044;45.148;39.604;2024-02-21T07:41:06;102235.16;;;4.68;63.63
52032;BME280;38044;45.148;39.604;2024-02-21T07:43:32;102238.41;;;4.77;65.02
52032;BME280;38044;45.148;39.604;2024-02-21T07:45:58;102243.66;;;4.97;65.07
52032;BME280;38044;45.148;39.604;2024-02-21T07:48:23;102238.28;;;5.10;64.89
52032;BME280;38044;45.148;39.604;2024-02-21T07:50:52;102244.22;;;5.12;63.86
52032;BME280;38044;45.148;39.604;2024-02-21T07:53:19;102240.94;;;5.10;64.68
52032;BME280;38044;45.148;39.604;2024-02-21T07:55:45;102240.56;;;5.07;65.18
52032;BME280;38044;45.148;39.604;2024-02-21T07:58:10;102237.91;;;5.00;64.72
52032;BME280;38044;45.148;39.604;2024-02-21T08:00:36;102235.94;;;4.82;63.87
52032;BME280;38044;45.148;39.604;2024-02-21T08:03:01;102237.78;;;4.82;65.51
52032;BME280;38044;45.148;39.604;2024-02-21T08:05:27;102238.41;;;4.84;64.26
52032;BME280;38044;45.148;39.604;2024-02-21T08:07:55;102236.75;;;4.89;63.88
52032;BME280;38044;45.148;39.604;2024-02-21T08:10:20;102231.06;;;4.72;64.54
52032;BME280;38044;45.148;39.604;2024-02-21T08:12:46;102235.81;;;4.57;63.54
52032;BME280;38044;45.148;39.604;2024-02-21T08:15:11;102235.69;;;4.32;63.89
52032;BME280;38044;45.148;39.604;2024-02-21T08:17:37;102234.88;;;4.25;64.26
52032;BME280;38044;45.148;39.604;2024-02-21T08:20:06;102242.25;;;4.16;65.00
52032;BME280;38044;45.148;39.604;2024-02-21T08:22:31;102235.28;;;4.35;65.48
52032;BME280;38044;45.148;39.604;2024-02-21T08:24:57;102243.38;;;4.60;65.31
52032;BME280;38044;45.148;39.604;2024-02-21T08:27:23;102244.50;;;4.91;64.90
52032;BME280;38044;45.148;39.604;2024-02-21T08:29:48;102246.28;;;5.10;64.36
52032;BME280;38044;45.148;39.604;2024-02-21T08:32:14;102249.69;;;5.17;63.43
52032;BME280;38044;45.148;39.604;2024-02-21T08:34:40;102252.16;;;5.19;63.28
52032;BME280;38044;45.148;39.604;2024-02-21T08:37:05;102252.59;;;5.09;62.75
52032;BME280;38044;45.148;39.604;2024-02-21T08:39:31;102249.34;;;5.07;63.22
52032;BME280;38044;45.148;39.604;2024-02-21T08:41:56;102251.84;;;5.02;63.92
52032;BME280;38044;45.148;39.604;2024-02-21T08:44:28;102240.56;;;5.00;62.78
52032;BME280;38044;45.148;39.604;2024-02-21T08:46:54;102239.91;;;5.11;63.14
52032;BME280;38044;45.148;39.604;2024-02-21T08:49:19;102242.69;;;5.23;63.77
52032;BME280;38044;45.148;39.604;2024-02-21T08:51:45;102243.25;;;5.32;63.25
52032;BME280;38044;45.148;39.604;2024-02-21T08:54:11;102245.94;;;5.32;62.48
52032;BME280;38044;45.148;39.604;2024-02-21T08:56:37;102251.00;;;5.40;62.85
52032;BME280;38044;45.148;39.604;2024-02-21T08:59:03;102252.81;;;5.46;61.29
52032;BME280;38044;45.148;39.604;2024-02-21T09:01:29;102253.25;;;5.43;62.91
52032;BME280;38044;45.148;39.604;2024-02-21T09:03:58;102249.13;;;5.47;62.44
52032;BME280;38044;45.148;39.604;2024-02-21T09:06:25;102254.03;;;5.50;62.33
52032;BME280;38044;45.148;39.604;2024-02-21T09:08:51;102251.00;;;5.72;63.14
52032;BME280;38044;45.148;39.604;2024-02-21T09:11:16;102254.63;;;5.84;62.68
52032;BME280;38044;45.148;39.604;2024-02-21T09:13:42;102256.31;;;5.78;61.93
52032;BME280;38044;45.148;39.604;2024-02-21T09:16:07;102238.38;;;5.85;60.34
52032;BME280;38044;45.148;39.604;2024-02-21T09:18:34;102236.44;;;5.99;61.78
52032;BME280;38044;45.148;39.604;2024-02-21T09:20:59;102246.13;;;6.19;62.58
52032;BME280;38044;45.148;39.604;2024-02-21T09:23:25;102238.31;;;6.17;60.43
52032;BME280;38044;45.148;39.604;2024-02-21T09:25:51;102240.03;;;6.12;60.14
52032;BME280;38044;45.148;39.604;2024-02-21T09:28:16;102238.69;;;6.21;61.47
52032;BME280;38044;45.148;39.604;2024-02-21T09:30:42;102233.22;;;6.34;61.41
52032;BME280;38044;45.148;39.604;2024-02-21T09:33:08;102232.66;;;6.50;59.90
52032;BME280;38044;45.148;39.604;2024-02-21T09:35:33;102227.34;;;6.44;59.11
52032;BME280;38044;45.148;39.604;2024-02-21T09:37:59;102223.59;;;6.51;59.64
52032;BME280;38044;45.148;39.604;2024-02-21T09:40:25;102220.63;;;6.60;58.88
52032;BME280;38044;45.148;39.604;2024-02-21T09:42:55;102225.72;;;6.80;59.90
52032;BME280;38044;45.148;39.604;2024-02-21T09:45:24;102215.41;;;7.13;59.20
52032;BME280;38044;45.148;39.604;2024-02-21T09:47:53;102219.03;;;7.19;59.88
52032;BME280;38044;45.148;39.604;2024-02-21T09:50:21;102211.88;;;7.31;58.61
52032;BME280;38044;45.148;39.604;2024-02-21T09:52:48;102217.72;;;7.52;59.51
52032;BME280;38044;45.148;39.604;2024-02-21T09:55:13;102219.75;;;7.68;58.48
52032;BME280;38044;45.148;39.604;2024-02-21T09:57:40;102213.00;;;7.89;58.44
52032;BME280;38044;45.148;39.604;2024-02-21T10:00:06;102215.44;;;8.14;57.71
52032;BME280;38044;45.148;39.604;2024-02-21T10:02:34;102203.78;;;8.20;54.38
52032;BME280;38044;45.148;39.604;2024-02-21T10:05:00;102196.38;;;8.74;53.78
52032;BME280;38044;45.148;39.604;2024-02-21T10:07:26;102196.91;;;9.34;54.86
52032;BME280;38044;45.148;39.604;2024-02-21T10:10:01;102191.69;;;9.95;56.34
52032;BME280;38044;45.148;39.604;2024-02-21T10:12:27;102193.97;;;10.64;53.10
52032;BME280;38044;45.148;39.604;2024-02-21T10:15:02;102191.22;;;10.58;53.61
52032;BME280;38044;45.148;39.604;2024-02-21T10:17:28;102189.00;;;10.50;50.89
52032;BME280;38044;45.148;39.604;2024-02-21T10:19:54;102192.16;;;10.69;50.62
52032;BME280;38044;45.148;39.604;2024-02-21T10:22:21;102196.97;;;10.45;54.09
52032;BME280;38044;45.148;39.604;2024-02-21T10:24:47;102184.16;;;10.74;55.58
52032;BME280;38044;45.148;39.604;2024-02-21T10:27:13;102183.84;;;11.25;51.88
52032;BME280;38044;45.148;39.604;2024-02-21T10:29:38;102185.16;;;11.55;51.91
52032;BME280;38044;45.148;39.604;2024-02-21T10:34:31;102185.25;;;11.65;46.25
52032;BME280;38044;45.148;39.604;2024-02-21T10:37:00;102185.47;;;11.26;47.28
52032;BME280;38044;45.148;39.604;2024-02-21T10:39:26;102178.53;;;10.76;48.81
52032;BME280;38044;45.148;39.604;2024-02-21T10:41:52;102179.03;;;10.29;47.45
52032;BME280;38044;45.148;39.604;2024-02-21T10:44:18;102170.34;;;10.05;51.03
52032;BME280;38044;45.148;39.604;2024-02-21T10:46:44;102175.59;;;9.78;50.89
52032;BME280;38044;45.148;39.604;2024-02-21T10:49:10;102171.88;;;9.45;48.78
52032;BME280;38044;45.148;39.604;2024-02-21T10:51:40;102169.41;;;9.27;49.85
52032;BME280;38044;45.148;39.604;2024-02-21T10:56:39;102168.38;;;8.82;52.53
52032;BME280;38044;45.148;39.604;2024-02-21T10:59:07;102174.03;;;8.57;52.61
52032;BME280;38044;45.148;39.604;2024-02-21T11:01:33;102158.81;;;8.34;50.59
52032;BME280;38044;45.148;39.604;2024-02-21T11:04:10;102159.41;;;8.12;51.57
52032;BME280;38044;45.148;39.604;2024-02-21T11:06:37;102153.16;;;8.07;52.15
52032;BME280;38044;45.148;39.604;2024-02-21T11:09:04;102159.19;;;8.14;53.13
52032;BME280;38044;45.148;39.604;2024-02-21T11:11:40;102154.53;;;8.21;52.45
52032;BME280;38044;45.148;39.604;2024-02-21T11:14:18;102146.28;;;8.11;52.07
52032;BME280;38044;45.148;39.604;2024-02-21T11:16:44;102145.13;;;8.07;52.33
52032;BME280;38044;45.148;39.604;2024-02-21T11:19:23;102144.28;;;8.18;52.07
52032;BME280;38044;45.148;39.604;2024-02-21T11:21:49;102141.34;;;8.31;51.16
52032;BME280;38044;45.148;39.604;2024-02-21T11:26:54;102139.34;;;8.27;52.10
52032;BME280;38044;45.148;39.604;2024-02-21T11:29:23;102146.94;;;8.42;51.03
52032;BME280;38044;45.148;39.604;2024-02-21T11:31:49;102143.50;;;8.87;51.38
52032;BME280;38044;45.148;39.604;2024-02-21T11:34:17;102133.59;;;9.04;50.95
52032;BME280;38044;45.148;39.604;2024-02-21T11:36:49;102135.56;;;9.09;50.94
52032;BME280;38044;45.148;39.604;2024-02-21T11:39:23;102141.09;;;9.02;51.26
52032;BME280;38044;45.148;39.604;2024-02-21T11:42:02;102136.75;;;8.55;50.15
52032;BME280;38044;45.148;39.604;2024-02-21T11:44:29;102129.38;;;8.22;50.56
52032;BME280;38044;45.148;39.604;2024-02-21T11:46:54;102128.88;;;8.37;51.42
52032;BME280;38044;45.148;39.604;2024-02-21T11:49:20;102131.75;;;8.59;51.16
52032;BME280;38044;45.148;39.604;2024-02-21T11:51:46;102124.03;;;8.63;51.12
52032;BME280;38044;45.148;39.604;2024-02-21T11:54:11;102124.47;;;8.71;49.80
52032;BME280;38044;45.148;39.604;2024-02-21T11:56:41;102128.75;;;8.72;50.61
52032;BME280;38044;45.148;39.604;2024-02-21T11:59:07;102123.44;;;8.61;50.29
52032;BME280;38044;45.148;39.604;2024-02-21T12:01:34;102129.16;;;8.00;50.28
52032;BME280;38044;45.148;39.604;2024-02-21T12:03:59;102141.31;;;7.67;51.23
52032;BME280;38044;45.148;39.604;2024-02-21T12:06:25;102125.81;;;7.58;52.41
52032;BME280;38044;45.148;39.604;2024-02-21T12:08:50;102133.84;;;7.46;52.30
52032;BME280;38044;45.148;39.604;2024-02-21T12:11:20;102130.00;;;7.30;52.52
52032;BME280;38044;45.148;39.604;2024-02-21T12:13:46;102132.88;;;7.29;53.07
52032;BME280;38044;45.148;39.604;2024-02-21T12:16:14;102118.81;;;7.33;53.09
52032;BME280;38044;45.148;39.604;2024-02-21T12:18:40;102128.34;;;7.29;52.70
52032;BME280;38044;45.148;39.604;2024-02-21T12:21:05;102122.41;;;7.15;52.85
52032;BME280;38044;45.148;39.604;2024-02-21T12:23:31;102113.94;;;7.30;53.18
52032;BME280;38044;45.148;39.604;2024-02-21T12:25:58;102118.44;;;7.18;53.75
52032;BME280;38044;45.148;39.604;2024-02-21T12:28:24;102113.22;;;7.23;53.27
52032;BME280;38044;45.148;39.604;2024-02-21T12:30:50;102116.00;;;7.16;53.79
52032;BME280;38044;45.148;39.604;2024-02-21T12:33:15;102111.59;;;7.22;53.91
52032;BME280;38044;45.148;39.604;2024-02-21T12:35:41;102116.50;;;7.25;53.22
52032;BME280;38044;45.148;39.604;2024-02-21T12:38:07;102114.88;;;7.24;53.06
52032;BME280;38044;45.148;39.604;2024-02-21T12:40:32;102117.94;;;7.09;53.04
52032;BME280;38044;45.148;39.604;2024-02-21T12:42:59;102118.06;;;7.03;53.44
52032;BME280;38044;45.148;39.604;2024-02-21T12:45:25;102119.69;;;7.04;53.93
52032;BME280;38044;45.148;39.604;2024-02-21T12:47:51;102118.69;;;7.16;54.36
52032;BME280;38044;45.148;39.604;2024-02-21T12:50:17;102114.88;;;7.24;53.22
52032;BME280;38044;45.148;39.604;2024-02-21T12:52:44;102120.66;;;7.21;53.32
52032;BME280;38044;45.148;39.604;2024-02-21T12:55:10;102113.81;;;7.25;53.78
52032;BME280;38044;45.148;39.604;2024-02-21T12:57:37;102120.66;;;7.21;53.56
52032;BME280;38044;45.148;39.604;2024-02-21T13:00:03;102114.88;;;7.24;53.97